createdAt,value
2019-05-14T00:01:45.785Z,99338.38
2019-05-14T00:04:21.926Z,99328.76
2019-05-14T00:06:55.889Z,99334.83
2019-05-14T00:09:28.861Z,99332.77
2019-05-14T00:12:03.068Z,99319.44
2019-05-14T00:14:40.258Z,99326.69
2019-05-14T00:17:13.633Z,99326.69
2019-05-14T00:19:47.925Z,99331.11
2019-05-14T00:22:22.259Z,99331.52
2019-05-14T00:24:56.653Z,99326.08
2019-05-14T00:27:31.277Z,99326.32
2019-05-14T00:30:06.330Z,99317.52
2019-05-14T00:32:41.438Z,99321.30
2019-05-14T00:35:17.750Z,99323.09
2019-05-14T00:37:52.112Z,99323.19
2019-05-14T00:40:27.302Z,99325.43
2019-05-14T00:43:02.635Z,99314.70
2019-05-14T00:45:38.657Z,99322.58
2019-05-14T00:48:13.044Z,99317.93
2019-05-14T00:50:47.275Z,99318.89
2019-05-14T00:53:21.714Z,99318.89
2019-05-14T00:55:55.941Z,99318.47
2019-05-14T00:58:31.031Z,99315.11
2019-05-14T01:01:05.325Z,99318.98
2019-05-14T01:03:41.515Z,99318.98
2019-05-14T01:06:15.907Z,99320.13
2019-05-14T01:08:51.846Z,99320.46
2019-05-14T01:11:25.915Z,99318.42
2019-05-14T01:14:01.712Z,99317.82
2019-05-14T01:16:35.930Z,99317.82
2019-05-14T01:19:08.844Z,99318.33
2019-05-14T01:21:42.935Z,99326.24
2019-05-14T01:24:17.276Z,99326.24
2019-05-14T01:26:52.328Z,99339.31
2019-05-14T01:29:26.785Z,99339.58
2019-05-14T01:32:01.237Z,99348.98
2019-05-14T01:34:35.750Z,99340.60
2019-05-14T01:37:11.656Z,99342.41
2019-05-14T01:39:45.889Z,99338.38
2019-05-14T01:42:18.787Z,99336.64
2019-05-14T01:44:52.931Z,99335.95
2019-05-14T01:47:25.674Z,99338.69
2019-05-14T01:50:01.945Z,99329.34
2019-05-14T01:52:35.911Z,99330.72
2019-05-14T01:55:11.199Z,99331.09
2019-05-14T01:57:44.924Z,99320.29
2019-05-14T02:00:19.295Z,99328.73
2019-05-14T02:02:53.793Z,99330.42
2019-05-14T02:05:26.663Z,99332.41
2019-05-14T02:08:01.789Z,99332.30
2019-05-14T02:10:36.294Z,99326.64
2019-05-14T02:13:12.320Z,99326.64
2019-05-14T02:15:46.775Z,99329.91
2019-05-14T02:18:21.579Z,99324.52
2019-05-14T02:20:55.576Z,99323.04
2019-05-14T02:23:31.894Z,99320.86
2019-05-14T02:26:05.862Z,99323.98
2019-05-14T02:28:38.808Z,99323.98
2019-05-14T02:31:13.084Z,99324.67
2019-05-14T02:33:50.393Z,99329.13
2019-05-14T02:36:23.301Z,99329.13
2019-05-14T02:39:00.439Z,99324.70
2019-05-14T02:41:33.718Z,99325.38
2019-05-14T02:44:09.811Z,99319.70
2019-05-14T02:46:44.135Z,99325.23
2019-05-14T02:49:19.486Z,99312.52
2019-05-14T02:51:53.872Z,99312.52
2019-05-14T02:54:29.714Z,99316.81
2019-05-14T02:57:02.713Z,99327.30
2019-05-14T02:59:39.345Z,99320.52
2019-05-14T03:02:12.871Z,99318.50
2019-05-14T03:04:45.661Z,99319.62
2019-05-14T03:07:19.806Z,99322.09
2019-05-14T03:09:52.793Z,99322.02
2019-05-14T03:12:29.985Z,99318.49
2019-05-14T03:15:02.862Z,99314.27
2019-05-14T03:17:35.637Z,99313.97
2019-05-14T03:20:11.269Z,99312.63
2019-05-14T03:23:01.396Z,99312.63
2019-05-14T03:25:21.660Z,99314.63
2019-05-14T03:27:55.942Z,99319.95
2019-05-14T03:30:32.163Z,99309.14
2019-05-14T03:33:05.954Z,99315.64
2019-05-14T03:35:49.113Z,99307.39
2019-05-14T03:38:15.024Z,99311.78
2019-05-14T03:40:49.419Z,99310.28
2019-05-14T03:43:23.789Z,99309.72
2019-05-14T03:45:59.373Z,99311.16
2019-05-14T03:48:32.626Z,99309.66
2019-05-14T03:51:09.060Z,99313.02
2019-05-14T03:54:00.680Z,99313.48
2019-05-14T03:56:19.321Z,99309.59
2019-05-14T03:58:53.766Z,99307.78
2019-05-14T04:01:29.604Z,99307.78
2019-05-14T04:04:03.961Z,99316.43
2019-05-14T04:06:40.101Z,99318.31
2019-05-14T04:09:15.528Z,99318.69
2019-05-14T04:11:52.745Z,99321.95
2019-05-14T04:14:29.540Z,99325.45
2019-05-14T04:17:11.218Z,99324.57
2019-05-14T04:19:40.572Z,99327.27
2019-05-14T04:22:19.042Z,99329.72
2019-05-14T04:24:54.124Z,99315.64
2019-05-14T04:27:30.208Z,99321.27
2019-05-14T04:30:05.023Z,99321.27
2019-05-14T04:32:39.670Z,99317.81
2019-05-14T04:35:13.269Z,99317.81
2019-05-14T04:37:49.604Z,99316.55
2019-05-14T04:40:23.870Z,99316.55
2019-05-14T04:42:59.182Z,99313.13
2019-05-14T04:45:32.716Z,99312.02
2019-05-14T04:48:24.091Z,99310.56
2019-05-14T04:50:42.842Z,99307.91
2019-05-14T04:53:15.681Z,99312.12
2019-05-14T04:55:49.787Z,99312.12
2019-05-14T04:58:24.072Z,99308.06
2019-05-14T05:01:00.714Z,99308.47
2019-05-14T05:03:34.773Z,99308.47
2019-05-14T05:06:10.089Z,99315.00
2019-05-14T05:08:44.683Z,99311.15
2019-05-14T05:11:21.324Z,99317.93
2019-05-14T05:13:54.923Z,99314.27
2019-05-14T05:16:29.702Z,99309.39
2019-05-14T05:19:02.664Z,99310.67
2019-05-14T05:21:38.824Z,99310.67
2019-05-14T05:24:12.263Z,99309.94
2019-05-14T05:26:48.542Z,99302.73
2019-05-14T05:29:23.295Z,99302.73
2019-05-14T05:31:59.734Z,99299.58
2019-05-14T05:34:33.954Z,99292.80
2019-05-14T05:37:10.269Z,99300.08
2019-05-14T05:39:44.696Z,99299.45
2019-05-14T05:42:20.288Z,99303.78
2019-05-14T05:44:54.724Z,99298.78
2019-05-14T05:47:29.295Z,99298.20
2019-05-14T05:50:04.942Z,99292.08
2019-05-14T05:52:39.308Z,99292.92
2019-05-14T05:55:14.270Z,99299.67
2019-05-14T05:57:50.268Z,99294.05
2019-05-14T06:00:40.307Z,99291.17
2019-05-14T06:03:15.267Z,99284.25
2019-05-14T06:05:50.627Z,99293.41
2019-05-14T06:08:25.132Z,99291.98
2019-05-14T06:10:59.881Z,99281.01
2019-05-14T06:13:33.014Z,99281.01
2019-05-14T06:16:06.166Z,99279.41
2019-05-14T06:18:40.283Z,99277.82
2019-05-14T06:21:18.715Z,99277.76
2019-05-14T06:23:52.927Z,99257.17
2019-05-14T06:26:29.016Z,99257.17
2019-05-14T06:29:03.644Z,99264.08
2019-05-14T06:31:38.691Z,99271.02
2019-05-14T06:34:11.854Z,99270.59
2019-05-14T06:36:48.585Z,99268.30
2019-05-14T06:39:24.297Z,99260.63
2019-05-14T06:41:58.858Z,99273.98
2019-05-14T06:44:31.978Z,99269.45
2019-05-14T06:47:04.639Z,99273.19
2019-05-14T06:49:38.937Z,99273.52
2019-05-14T06:52:13.253Z,99269.58
2019-05-14T06:54:49.576Z,99266.44
2019-05-14T06:57:24.271Z,99266.44
2019-05-14T07:00:00.732Z,99273.58
2019-05-14T07:02:34.651Z,99267.28
2019-05-14T07:05:09.335Z,99270.52
2019-05-14T07:07:44.107Z,99276.46
2019-05-14T07:10:19.624Z,99267.00
2019-05-14T07:12:53.000Z,99273.70
2019-05-14T07:15:25.634Z,99272.31
2019-05-14T07:17:59.883Z,99274.77
2019-05-14T07:20:33.017Z,99274.77
2019-05-14T07:23:08.230Z,99274.77
2019-05-14T07:25:43.887Z,99270.30
2019-05-14T07:28:19.681Z,99274.03
2019-05-14T07:30:54.268Z,99272.75
2019-05-14T07:33:30.212Z,99273.51
2019-05-14T07:36:04.945Z,99270.35
2019-05-14T07:38:39.205Z,99281.30
2019-05-14T07:41:13.697Z,99281.30
2019-05-14T07:43:48.347Z,99276.30
2019-05-14T07:46:22.688Z,99259.59
2019-05-14T07:49:07.220Z,99259.59
2019-05-14T07:51:33.287Z,99269.98
2019-05-14T07:54:08.319Z,99266.45
2019-05-14T07:56:43.106Z,99268.09
2019-05-14T07:59:18.139Z,99262.86
2019-05-14T08:01:52.673Z,99262.86
2019-05-14T08:04:28.952Z,99255.30
2019-05-14T08:07:03.610Z,99252.11
2019-05-14T08:09:38.955Z,99251.25
2019-05-14T08:12:16.343Z,99251.25
2019-05-14T08:15:10.185Z,99242.55
2019-05-14T08:17:28.141Z,99241.47
2019-05-14T08:20:04.118Z,99241.63
2019-05-14T08:22:38.457Z,99228.64
2019-05-14T08:25:14.284Z,99228.64
2019-05-14T08:27:50.280Z,99218.95
2019-05-14T08:30:24.939Z,99218.95
2019-05-14T08:32:58.325Z,99222.91
2019-05-14T08:35:35.129Z,99228.70
2019-05-14T08:38:12.182Z,99233.81
2019-05-14T08:40:48.672Z,99240.13
2019-05-14T08:43:24.118Z,99234.56
2019-05-14T08:45:58.967Z,99225.99
2019-05-14T08:48:33.280Z,99225.99
2019-05-14T08:51:09.160Z,99230.13
2019-05-14T08:53:44.281Z,99223.92
2019-05-14T08:56:19.269Z,99225.83
2019-05-14T08:58:54.275Z,99221.05
2019-05-14T09:01:29.398Z,99227.58
2019-05-14T09:04:05.780Z,99223.17
2019-05-14T09:06:38.802Z,99224.10
2019-05-14T09:09:13.304Z,99229.69
2019-05-14T09:11:50.420Z,99232.03
2019-05-14T09:14:24.935Z,99225.03
2019-05-14T09:17:00.121Z,99230.45
2019-05-14T09:19:34.679Z,99229.25
2019-05-14T09:22:09.550Z,99228.47
2019-05-14T09:24:42.645Z,99219.61
2019-05-14T09:27:19.137Z,99215.28
2019-05-14T09:29:53.330Z,99221.79
2019-05-14T09:32:29.210Z,99215.30
2019-05-14T09:35:04.275Z,99219.17
2019-05-14T09:37:39.538Z,99211.62
2019-05-14T09:40:14.706Z,99210.10
2019-05-14T09:42:49.962Z,99206.20
2019-05-14T09:45:27.890Z,99206.84
2019-05-14T09:48:03.624Z,99201.75
2019-05-14T09:50:39.267Z,99201.75
2019-05-14T09:53:14.930Z,99191.97
2019-05-14T09:55:49.314Z,99191.97
2019-05-14T09:58:28.291Z,99196.81
2019-05-14T10:01:02.718Z,99196.81
2019-05-14T10:03:35.670Z,99187.72
2019-05-14T10:06:11.679Z,99189.96
2019-05-14T10:08:48.405Z,99191.86
2019-05-14T10:11:22.276Z,99181.99
2019-05-14T10:13:59.699Z,99183.64
2019-05-14T10:16:33.940Z,99183.34
2019-05-14T10:19:08.648Z,99167.32
2019-05-14T10:21:45.698Z,99167.32
2019-05-14T10:24:20.273Z,99176.05
2019-05-14T10:26:55.275Z,99171.55
2019-05-14T10:29:29.722Z,99161.31
2019-05-14T10:32:04.329Z,99168.53
2019-05-14T10:34:38.777Z,99161.23
2019-05-14T10:37:11.853Z,99145.80
2019-05-14T10:39:44.691Z,99138.70
2019-05-14T10:42:20.176Z,99146.69
2019-05-14T10:44:55.268Z,99126.98
2019-05-14T10:47:30.787Z,99129.58
2019-05-14T10:50:03.680Z,99131.41
2019-05-14T10:52:39.526Z,99123.66
2019-05-14T10:55:14.284Z,99118.67
2019-05-14T10:57:53.924Z,99100.84
2019-05-14T11:00:25.285Z,99108.16
2019-05-14T11:02:59.665Z,99086.00
2019-05-14T11:05:34.942Z,99114.16
2019-05-14T11:08:11.918Z,99114.31
2019-05-14T11:10:43.867Z,99105.08
2019-05-14T11:13:18.802Z,99107.47
2019-05-14T11:15:52.564Z,99103.48
2019-05-14T11:18:29.173Z,99103.48
2019-05-14T11:21:18.690Z,99100.26
2019-05-14T11:23:38.919Z,99099.47
2019-05-14T11:26:15.177Z,99089.36
2019-05-14T11:28:49.595Z,99097.28
2019-05-14T11:31:23.931Z,99097.28
2019-05-14T11:33:59.018Z,99079.75
2019-05-14T11:36:34.335Z,99084.86
2019-05-14T11:39:09.799Z,99079.37
2019-05-14T11:41:42.986Z,99085.38
2019-05-14T11:44:17.351Z,99076.27
2019-05-14T11:46:57.860Z,99076.27
2019-05-14T11:49:28.682Z,99068.42
2019-05-14T11:52:07.640Z,99069.96
2019-05-14T11:54:40.954Z,99076.28
2019-05-14T11:57:14.078Z,99063.92
2019-05-14T11:59:48.671Z,99067.81
2019-05-14T12:02:24.276Z,99059.06
2019-05-14T12:05:00.542Z,99068.83
2019-05-14T12:07:35.704Z,99064.74
2019-05-14T12:10:10.285Z,99059.91
2019-05-14T12:12:45.080Z,99053.67
2019-05-14T12:15:19.964Z,99057.16
2019-05-14T12:17:54.349Z,99057.16
2019-05-14T12:20:29.799Z,99060.75
2019-05-14T12:23:08.808Z,99070.34
2019-05-14T12:25:43.295Z,99072.39
2019-05-14T12:28:19.183Z,99071.70
2019-05-14T12:30:54.953Z,99071.17
2019-05-14T12:33:31.717Z,99087.35
2019-05-14T12:36:10.132Z,99087.35
2019-05-14T12:38:44.450Z,99087.13
2019-05-14T12:41:19.966Z,99085.50
2019-05-14T12:43:55.395Z,99070.75
2019-05-14T12:46:33.432Z,99070.75
2019-05-14T12:49:11.590Z,99064.80
2019-05-14T12:51:46.148Z,99049.50
2019-05-14T12:54:23.408Z,99033.70
2019-05-14T12:56:59.004Z,99027.77
2019-05-14T12:59:34.961Z,99015.33
2019-05-14T13:02:10.694Z,98999.83
2019-05-14T13:04:44.709Z,98999.83
2019-05-14T13:07:20.306Z,99005.48
2019-05-14T13:09:58.306Z,99079.17
2019-05-14T13:12:35.573Z,99079.17
2019-05-14T13:15:12.408Z,99074.88
2019-05-14T13:17:48.623Z,99075.83
2019-05-14T13:20:23.449Z,99040.93
2019-05-14T13:22:59.304Z,99046.66
2019-05-14T13:25:35.288Z,99046.66
2019-05-14T13:28:11.299Z,99059.18
2019-05-14T13:30:48.848Z,99052.09
2019-05-14T13:33:28.375Z,99054.28
2019-05-14T13:36:02.429Z,99053.12
2019-05-14T13:38:40.286Z,99057.50
2019-05-14T13:41:16.307Z,99054.73
2019-05-14T13:43:52.311Z,99053.56
2019-05-14T13:46:29.576Z,99052.55
2019-05-14T13:49:05.301Z,99053.19
2019-05-14T13:51:41.561Z,99043.44
2019-05-14T13:54:19.546Z,99047.47
2019-05-14T13:59:29.312Z,99021.45
2019-05-14T14:02:05.374Z,99021.45
2019-05-14T14:04:43.908Z,99024.87
2019-05-14T14:07:19.593Z,99022.41
2019-05-14T14:09:58.962Z,99011.45
2019-05-14T14:12:35.985Z,99009.64
2019-05-14T14:15:16.482Z,99010.29
2019-05-14T14:17:53.028Z,99011.34
2019-05-14T14:20:29.319Z,99011.75
2019-05-14T14:23:18.797Z,99006.06
2019-05-14T14:25:45.306Z,99001.56
2019-05-14T14:28:21.636Z,99005.39
2019-05-14T14:30:56.964Z,99001.39
2019-05-14T14:33:32.531Z,99000.53
2019-05-14T14:36:08.766Z,98984.36
2019-05-14T14:38:44.135Z,98976.27
2019-05-14T14:41:28.405Z,99002.42
2019-05-14T14:44:10.300Z,99002.42
2019-05-14T14:46:48.226Z,99010.70
2019-05-14T14:49:25.366Z,99018.22
2019-05-14T14:52:01.645Z,99034.84
2019-05-14T14:54:40.496Z,99019.63
2019-05-14T14:57:20.461Z,99003.88
2019-05-14T14:59:58.317Z,98999.88
2019-05-14T15:02:35.576Z,98992.52
2019-05-14T15:05:15.319Z,98990.91
2019-05-14T15:08:00.213Z,98986.93
2019-05-14T15:10:39.269Z,98986.65
2019-05-14T15:13:15.320Z,98982.33
2019-05-14T15:15:55.315Z,98981.38
2019-05-14T15:18:33.039Z,98982.64
2019-05-14T15:21:14.987Z,98982.64
2019-05-14T15:24:07.115Z,98972.41
2019-05-14T15:26:39.338Z,98965.78
2019-05-14T15:29:18.728Z,98965.78
2019-05-14T15:32:00.926Z,98958.83
2019-05-14T15:34:41.323Z,98956.64
2019-05-14T15:37:22.834Z,98959.73
2019-05-14T15:40:04.087Z,98958.51
2019-05-14T15:42:41.485Z,98955.88
2019-05-14T15:45:30.152Z,98950.41
2019-05-14T15:48:09.064Z,98948.58
2019-05-14T15:50:49.903Z,98947.99
2019-05-14T15:53:29.063Z,98943.63
2019-05-14T15:56:08.140Z,98944.08
2019-05-14T15:58:46.074Z,98935.52
2019-05-14T16:01:21.315Z,98936.30
2019-05-14T16:04:01.318Z,98925.48
2019-05-14T16:06:40.752Z,98924.43
2019-05-14T16:11:11.345Z,98905.77
2019-05-14T16:13:49.391Z,98905.77
2019-05-14T16:16:28.957Z,98904.52
2019-05-14T16:19:10.314Z,98908.41
2019-05-14T16:21:47.606Z,98903.44
2019-05-14T16:24:25.356Z,98905.77
2019-05-14T16:27:03.041Z,98892.62
2019-05-14T16:29:47.439Z,98892.62
2019-05-14T16:32:28.501Z,98888.77
2019-05-14T16:35:08.898Z,98888.42
2019-05-14T16:37:48.387Z,98888.42
2019-05-14T16:40:30.003Z,98887.22
2019-05-14T16:43:08.757Z,98887.22
2019-05-14T16:45:44.904Z,98884.09
2019-05-14T16:48:25.315Z,98888.20
2019-05-14T16:51:03.813Z,98890.48
2019-05-14T16:53:50.961Z,98884.52
2019-05-14T16:56:28.411Z,98890.13
2019-05-14T16:59:04.741Z,98890.13
2019-05-14T17:01:44.332Z,98891.05
2019-05-14T17:04:29.139Z,98888.11
2019-05-14T17:07:09.507Z,98893.27
2019-05-14T17:09:49.511Z,98882.14
2019-05-14T17:13:28.443Z,98881.22
2019-05-14T17:16:10.333Z,98879.72
2019-05-14T17:18:48.781Z,98879.72
2019-05-14T17:21:29.394Z,98876.84
2019-05-14T17:24:09.328Z,98875.28
2019-05-14T17:26:50.357Z,98873.09
2019-05-14T17:29:40.183Z,98877.16
2019-05-14T17:32:30.357Z,98877.16
2019-05-14T17:35:10.690Z,98878.25
2019-05-14T17:37:48.321Z,98881.97
2019-05-14T17:40:28.050Z,98875.02
2019-05-14T17:43:09.638Z,98868.05
2019-05-14T17:45:54.461Z,98872.52
2019-05-14T17:48:33.044Z,98872.52
2019-05-14T17:51:10.719Z,98868.34
2019-05-14T17:53:58.728Z,98872.31
2019-05-14T17:56:39.029Z,98872.44
2019-05-14T17:59:19.320Z,98869.73
2019-05-14T18:01:58.243Z,98869.73
2019-05-14T18:04:51.571Z,98874.83
2019-05-14T18:07:30.513Z,98870.94
2019-05-14T18:10:14.603Z,98876.48
2019-05-14T18:12:51.140Z,98872.14
2019-05-14T18:15:39.301Z,98876.84
2019-05-14T18:18:23.470Z,98876.84
2019-05-14T18:21:24.996Z,98871.88
2019-05-14T18:24:11.981Z,98867.36
2019-05-14T18:26:50.054Z,98873.77
2019-05-14T18:29:41.328Z,98870.48
2019-05-14T18:32:24.583Z,98869.88
2019-05-14T18:35:06.029Z,98872.63
2019-05-14T18:37:57.028Z,98868.73
2019-05-14T18:40:36.976Z,98873.92
2019-05-14T18:43:20.368Z,98870.17
2019-05-14T18:46:01.960Z,98869.62
2019-05-14T18:48:43.057Z,98870.52
2019-05-14T18:51:28.541Z,98872.92
2019-05-14T18:54:11.364Z,98870.97
2019-05-14T18:56:55.664Z,98876.76
2019-05-14T18:59:54.688Z,98874.86
2019-05-14T19:02:34.369Z,98880.81
2019-05-14T19:05:18.314Z,98878.14
2019-05-14T19:08:02.465Z,98880.63
2019-05-14T19:10:46.356Z,98882.24
2019-05-14T19:13:28.132Z,98882.24
2019-05-14T19:16:08.335Z,98885.28
2019-05-14T19:18:51.326Z,98888.05
2019-05-14T19:21:38.443Z,98888.05
2019-05-14T19:24:19.960Z,98880.14
2019-05-14T19:27:03.613Z,98890.23
2019-05-14T19:29:44.632Z,98894.38
2019-05-14T19:32:29.044Z,98883.55
2019-05-14T19:35:08.607Z,98885.50
2019-05-14T19:38:58.300Z,98883.87
2019-05-14T19:41:28.147Z,98881.56
2019-05-14T19:50:54.855Z,98882.34
2019-05-14T19:53:54.673Z,98880.13
2019-05-14T19:57:01.110Z,98881.61
2019-05-14T20:00:18.547Z,98883.45
2019-05-14T20:03:25.458Z,98886.05
2019-05-14T20:06:46.037Z,98881.81
2019-05-14T20:10:29.468Z,98885.05
2019-05-14T20:13:39.995Z,98876.34
2019-05-14T20:17:02.728Z,98880.16
2019-05-14T20:21:08.626Z,98877.51
2019-05-14T20:23:14.203Z,98878.55
2019-05-14T20:26:14.429Z,98883.45
2019-05-14T20:29:11.463Z,98881.11
2019-05-14T20:32:19.383Z,98871.06
2019-05-14T20:35:08.864Z,98880.83
2019-05-14T20:37:49.368Z,98874.86
2019-05-14T20:40:28.877Z,98874.42
2019-05-14T20:43:10.475Z,98869.33
2019-05-14T20:45:51.663Z,98871.42
2019-05-14T20:48:32.320Z,98871.54
2019-05-14T20:51:11.317Z,98870.77
2019-05-14T20:53:49.694Z,98867.48
2019-05-14T20:56:30.921Z,98870.67
2019-05-14T20:59:11.703Z,98871.22
2019-05-14T21:01:48.012Z,98868.27
2019-05-14T21:04:28.235Z,98864.23
2019-05-14T21:07:11.442Z,98864.23
2019-05-14T21:09:49.284Z,98864.25
2019-05-14T21:12:28.884Z,98859.73
2019-05-14T21:15:04.317Z,98864.48
2019-05-14T21:17:40.764Z,98861.19
2019-05-14T21:20:18.560Z,98861.47
2019-05-14T21:22:58.183Z,98855.42
2019-05-14T21:25:32.495Z,98862.26
2019-05-14T21:28:11.358Z,98862.26
2019-05-14T21:30:48.698Z,98860.20
2019-05-14T21:33:23.324Z,98861.23
2019-05-14T21:35:59.255Z,98858.73
2019-05-14T21:38:34.590Z,98856.56
2019-05-14T21:41:09.465Z,98857.20
2019-05-14T21:43:44.407Z,98853.73
2019-05-14T21:46:19.373Z,98857.38
2019-05-14T21:48:54.319Z,98851.93
2019-05-14T21:51:28.761Z,98849.17
2019-05-14T21:54:02.945Z,98852.64
2019-05-14T21:56:38.670Z,98844.95
2019-05-14T21:59:14.390Z,98844.95
2019-05-14T22:01:49.618Z,98837.63
2019-05-14T22:04:23.959Z,98839.44
2019-05-14T22:06:58.595Z,98838.41
2019-05-14T22:09:32.952Z,98831.18
2019-05-14T22:12:05.874Z,98833.88
2019-05-14T22:14:40.303Z,98834.22
2019-05-14T22:17:14.997Z,98827.47
2019-05-14T22:19:53.374Z,98832.73
2019-05-14T22:22:39.165Z,98827.49
2019-05-14T22:25:15.482Z,98827.49
2019-05-14T22:28:10.633Z,98823.27
2019-05-14T22:30:30.980Z,98823.27
2019-05-14T22:33:08.481Z,98828.78
2019-05-14T22:35:41.855Z,98828.43
2019-05-14T22:38:20.015Z,98826.73
2019-05-14T22:40:53.131Z,98822.66
2019-05-14T22:43:28.847Z,98821.38
2019-05-14T22:46:01.706Z,98821.38
2019-05-14T22:48:37.812Z,98824.05
2019-05-14T22:51:10.704Z,98823.69
2019-05-14T22:53:44.798Z,98817.23
2019-05-14T22:56:18.965Z,98817.72
2019-05-14T22:58:53.310Z,98807.91
2019-05-14T23:01:28.892Z,98807.91
2019-05-14T23:04:03.702Z,98808.84
2019-05-14T23:06:38.262Z,98808.84
2019-05-14T23:09:16.389Z,98800.06
2019-05-14T23:11:50.289Z,98803.48
2019-05-14T23:14:24.765Z,98803.48
2019-05-14T23:16:59.342Z,98802.70
2019-05-14T23:19:36.357Z,98799.08
2019-05-14T23:22:12.354Z,98799.92
2019-05-14T23:24:50.294Z,98792.94
2019-05-14T23:27:24.953Z,98793.95
2019-05-14T23:29:59.355Z,98790.06
2019-05-14T23:32:33.727Z,98790.06
2019-05-14T23:35:08.749Z,98796.00
2019-05-14T23:37:41.878Z,98796.23
2019-05-14T23:40:16.300Z,98794.44
2019-05-14T23:42:50.950Z,98781.67
2019-05-14T23:45:24.950Z,98788.63
2019-05-14T23:47:58.575Z,98793.30
2019-05-14T23:50:32.791Z,98791.83
2019-05-14T23:53:09.489Z,98787.93
2019-05-14T23:55:44.286Z,98787.42
2019-05-14T23:58:20.556Z,98788.67
